Time;durP1;ratioP1;P1;durP2;ratioP2;P2;SDS_P1;SDS_P2;PMS_P1;PMS_P2;Temp;Humidity;BMP_temperature;BMP_pressure;BME280_temperature;BME280_humidity;BME280_pressure;Samples;Min_cycle;Max_cycle;Signal;HPM_P1;HPM_P2
2023/10/05 00:04:41;;;;;;;0.10;0.10;;;;;;;19.41;54.35;101968.66;5011711;28;20041;-82
2023/10/05 00:07:12;;;;;;;0.10;0.10;;;;;;;19.41;54.17;101969.50;4980667;28;20034;-82
2023/10/05 00:09:40;;;;;;;0.10;0.10;;;;;;;19.35;54.50;101966.41;4995782;28;20025;-82
2023/10/05 00:12:08;;;;;;;0.10;0.10;;;;;;;19.40;54.29;101966.97;4996009;28;20025;-83
2023/10/05 00:14:37;;;;;;;0.10;0.10;;;;;;;19.42;53.94;101962.44;4995646;28;20172;-83
2023/10/05 00:17:06;;;;;;;0.10;0.10;;;;;;;19.43;53.98;101966.75;4979671;28;20436;-82
2023/10/05 00:19:37;;;;;;;0.10;0.10;;;;;;;19.50;54.12;101975.94;4979368;28;20030;-83
2023/10/05 00:22:04;;;;;;;0.10;0.10;;;;;;;19.34;54.25;101967.34;4996144;28;20029;-82
2023/10/05 00:24:37;;;;;;;0.10;0.10;;;;;;;19.32;54.28;101969.25;4995605;28;20037;-82
2023/10/05 00:27:04;;;;;;;0.10;0.10;;;;;;;19.26;54.01;101975.72;4996490;28;20033;-83
2023/10/05 00:29:41;;;;;;;0.10;0.10;;;;;;;19.26;54.25;101964.38;4995545;28;20034;-82
2023/10/05 00:32:22;;;;;;;0.10;0.10;;;;;;;19.13;54.24;101944.19;4997130;28;20026;-82
2023/10/05 00:34:52;;;;;;;0.10;0.10;;;;;;;19.25;53.92;101962.69;4994842;28;20506;-82
2023/10/05 00:37:19;;;;;;;0.10;0.10;;;;;;;19.23;54.00;101968.03;4979519;28;20030;-82
2023/10/05 00:39:49;;;;;;;0.10;0.10;;;;;;;19.26;53.83;101970.47;4995339;28;20080;-82
2023/10/05 00:42:15;;;;;;;0.10;0.10;;;;;;;19.18;54.08;101976.22;4994499;28;20030;-82
2023/10/05 00:44:41;;;;;;;0.10;0.10;;;;;;;19.26;54.29;101970.47;4978791;28;20034;-83
2023/10/05 00:47:07;;;;;;;0.10;0.10;;;;;;;19.22;54.08;101976.00;4995080;28;20022;-82
2023/10/05 00:49:53;;;;;;;0.10;0.10;;;;;;;19.19;54.10;101984.94;4994612;28;20022;-82
2023/10/05 00:52:24;;;;;;;0.10;0.10;;;;;;;19.11;54.08;101979.31;4997597;28;20033;-82
2023/10/05 00:54:51;;;;;;;0.10;0.10;;;;;;;19.09;53.90;101974.19;4987596;28;20022;-82
2023/10/05 00:57:21;;;;;;;0.10;0.10;;;;;;;19.12;54.03;101971.34;4995120;28;20026;-82
2023/10/05 00:59:49;;;;;;;0.10;0.10;;;;;;;19.04;53.88;101976.22;4978810;28;20095;-82
2023/10/05 01:02:15;;;;;;;0.10;0.10;;;;;;;19.06;54.05;101979.59;4994804;28;20963;-82
2023/10/05 01:07:18;;;;;;;0.10;0.10;;;;;;;18.96;54.09;101965.38;4995009;28;20446;-82
2023/10/05 01:15:18;;;;;;;0.10;0.10;;;;;;;18.85;54.52;101970.47;4980231;28;20053;-82
2023/10/05 01:17:44;;;;;;;0.20;0.20;;;;;;;18.85;54.42;101981.78;4994250;28;20045;-82
2023/10/05 01:20:22;;;;;;;0.13;0.13;;;;;;;18.86;54.59;101982.63;4994453;28;20029;-82
2023/10/05 01:22:54;;;;;;;0.10;0.10;;;;;;;18.84;54.42;101977.47;4996128;28;20045;-83
2023/10/05 01:25:20;;;;;;;;;;;;;;;18.84;54.59;101974.03;4995303;28;20026;-82
2023/10/05 01:27:47;;;;;;;0.10;0.10;;;;;;;18.70;54.96;101974.91;5010188;28;19963;-82
2023/10/05 01:30:12;;;;;;;0.10;0.10;;;;;;;18.73;54.87;101981.72;4994019;28;20045;-82
2023/10/05 01:32:41;;;;;;;0.10;0.10;;;;;;;18.76;54.95;101971.03;4993767;28;20704;-83
2023/10/05 01:35:12;;;;;;;0.10;0.10;;;;;;;18.65;54.98;101961.22;4994714;28;20116;-82
2023/10/05 01:37:39;;;;;;;0.10;0.10;;;;;;;18.74;54.54;101968.50;4994643;28;20041;-82
2023/10/05 01:40:14;;;;;;;0.10;0.10;;;;;;;18.74;54.69;101968.50;4977831;28;20313;-82
2023/10/05 01:42:44;;;;;;;0.10;0.10;;;;;;;18.66;54.89;101968.13;4995284;28;20108;-82
2023/10/05 01:45:15;;;;;;;0.10;0.10;;;;;;;18.66;54.65;101956.81;4993917;28;20553;-82
2023/10/05 01:47:43;;;;;;;0.10;0.10;;;;;;;18.66;54.62;101954.19;4994556;28;20399;-82
2023/10/05 01:50:19;;;;;;;0.10;0.10;;;;;;;18.71;54.70;101954.75;4993821;28;20029;-82
2023/10/05 01:52:48;;;;;;;0.10;0.10;;;;;;;18.69;54.54;101961.88;4978343;28;20038;-82
2023/10/05 01:55:18;;;;;;;0.10;0.10;;;;;;;18.60;55.05;101971.97;4993436;28;20041;-82
2023/10/05 01:57:44;;;;;;;0.10;0.10;;;;;;;18.52;55.17;101953.25;4994301;28;20062;-82
2023/10/05 02:00:14;;;;;;;0.20;0.20;;;;;;;18.65;54.94;101960.38;4993540;28;20030;-82
2023/10/05 02:02:41;;;;;;;0.10;0.10;;;;;;;18.52;55.16;101961.09;4994021;28;20053;-82
2023/10/05 02:05:07;;;;;;;0.10;0.10;;;;;;;18.60;55.04;101974.59;4994229;28;20033;-82
2023/10/05 02:07:35;;;;;;;0.10;0.10;;;;;;;18.47;54.91;101964.91;4993485;28;20121;-82
2023/10/05 02:10:03;;;;;;;0.10;0.10;;;;;;;18.34;55.04;101943.88;4993922;28;20034;-82
2023/10/05 02:12:29;;;;;;;0.10;0.10;;;;;;;18.49;55.28;101974.41;4993463;28;20408;-82
2023/10/05 02:14:57;;;;;;;0.10;0.10;;;;;;;18.41;55.33;101965.31;4993007;28;20049;-82
2023/10/05 02:17:23;;;;;;;0.10;0.10;;;;;;;18.45;55.24;101979.91;4977534;28;20080;-82
2023/10/05 02:19:49;;;;;;;0.10;0.10;;;;;;;18.29;55.60;101980.84;4993313;28;20037;-81
2023/10/05 02:22:14;;;;;;;0.10;0.10;;;;;;;18.16;55.78;101965.94;4993440;28;20029;-82
2023/10/05 02:24:41;;;;;;;0.15;0.15;;;;;;;18.28;55.93;101981.75;4993432;28;20065;-82
2023/10/05 02:27:09;;;;;;;0.20;0.20;;;;;;;18.17;55.88;101978.94;4993499;28;20037;-82
2023/10/05 02:29:35;;;;;;;0.10;0.10;;;;;;;18.19;56.17;101986.69;4992935;28;20116;-82
2023/10/05 02:34:35;;;;;;;0.10;0.10;;;;;;;18.03;56.44;101992.84;4993424;28;20518;-82
2023/10/05 02:37:01;;;;;;;0.10;0.10;;;;;;;17.92;56.74;101990.03;4994530;28;20407;-83
2023/10/05 02:39:27;;;;;;;0.10;0.10;;;;;;;17.89;56.88;101998.03;4993234;28;20037;-82
2023/10/05 02:41:54;;;;;;;0.13;0.13;;;;;;;17.83;57.21;101993.16;4976808;28;20113;-82
2023/10/05 02:44:28;;;;;;;0.20;0.20;;;;;;;17.77;56.72;101981.25;4993126;28;20040;-82
2023/10/05 02:46:53;;;;;;;0.10;0.10;;;;;;;17.80;57.21;102001.22;4993024;28;20029;-82
2023/10/05 02:49:19;;;;;;;0.10;0.10;;;;;;;17.82;57.00;102001.97;4976796;28;20412;-82
2023/10/05 02:51:46;;;;;;;0.10;0.10;;;;;;;17.77;57.09;102007.44;4993138;28;20117;-82
2023/10/05 02:54:12;;;;;;;0.13;0.10;;;;;;;17.76;57.02;102005.75;4992910;28;20030;-82
2023/10/05 02:56:40;;;;;;;0.10;0.10;;;;;;;17.70;57.32;102005.28;4976934;28;20507;-83
2023/10/05 02:59:14;;;;;;;0.10;0.10;;;;;;;17.72;57.36;102019.13;4976411;28;20033;-83
2023/10/05 03:01:40;;;;;;;0.20;0.20;;;;;;;17.68;57.24;102020.16;4994207;28;20032;-82
2023/10/05 03:04:10;;;;;;;0.10;0.10;;;;;;;17.62;57.54;102023.16;4976752;28;20404;-83
2023/10/05 03:06:39;;;;;;;0.10;0.10;;;;;;;17.76;57.34;102026.69;4994731;28;20076;-83
2023/10/05 03:09:07;;;;;;;0.10;0.10;;;;;;;17.64;57.27;102016.06;4997378;28;20029;-83
2023/10/05 03:11:40;;;;;;;0.10;0.10;;;;;;;17.72;57.46;102024.34;4996817;28;20037;-83
2023/10/05 03:14:06;;;;;;;0.10;0.10;;;;;;;17.41;57.96;101999.88;4980065;28;20097;-83
2023/10/05 03:16:43;;;;;;;0.10;0.10;;;;;;;17.58;58.17;102017.22;5014224;28;20038;-83
2023/10/05 03:19:20;;;;;;;0.20;0.20;;;;;;;17.64;57.05;102022.13;4998125;28;20111;-83
2023/10/05 03:21:53;;;;;;;0.22;0.20;;;;;;;17.51;57.88;102020.31;4997780;28;20030;-83
2023/10/05 03:24:19;;;;;;;0.10;0.10;;;;;;;17.46;57.90;102017.91;4997068;28;20049;-83
2023/10/05 03:26:45;;;;;;;0.10;0.10;;;;;;;17.37;58.11;102014.03;4996292;28;20109;-83
2023/10/05 03:29:11;;;;;;;0.13;0.13;;;;;;;17.34;58.12;102001.13;4996375;28;20462;-82
2023/10/05 03:31:43;;;;;;;0.20;0.20;;;;;;;17.41;58.10;102023.44;4996266;28;20026;-83
2023/10/05 03:34:09;;;;;;;0.10;0.10;;;;;;;17.28;58.38;102009.31;4997240;28;20022;-83
2023/10/05 03:36:35;;;;;;;0.10;0.10;;;;;;;17.23;58.46;101995.66;4996072;28;20033;-83
2023/10/05 03:39:06;;;;;;;0.10;0.10;;;;;;;17.38;58.37;102026.19;4995141;28;20038;-84
2023/10/05 03:41:32;;;;;;;0.10;0.10;;;;;;;17.37;58.36;102028.91;4993530;28;20038;-83
2023/10/05 03:44:16;;;;;;;0.10;0.10;;;;;;;17.32;58.82;102021.31;5029819;28;20553;-84
2023/10/05 03:46:47;;;;;;;0.10;0.10;;;;;;;17.29;58.69;102031.09;5035247;28;20552;-83
2023/10/05 03:49:19;;;;;;;0.15;0.15;;;;;;;17.34;58.84;102024.69;5051912;28;20064;-83
2023/10/05 03:51:49;;;;;;;0.10;0.10;;;;;;;17.38;59.03;102031.41;5052834;28;20490;-89
2023/10/05 03:54:21;;;;;;;0.10;0.10;;;;;;;17.34;59.04;102029.91;5034858;28;20025;-87
2023/10/05 03:56:50;;;;;;;0.10;0.10;;;;;;;17.26;58.57;102023.41;5034675;28;20043;-86
2023/10/05 03:59:16;;;;;;;0.10;0.10;;;;;;;17.21;58.78;102018.44;5035090;28;20033;-87
2023/10/05 04:01:41;;;;;;;0.10;0.10;;;;;;;17.19;58.95;102026.34;5018193;28;20510;-87
2023/10/05 04:04:08;;;;;;;0.10;0.10;;;;;;;17.23;59.07;102028.81;5051519;28;20028;-86
2023/10/05 04:06:37;;;;;;;0.10;0.10;;;;;;;17.22;59.25;102035.81;5028368;28;20048;-85
2023/10/05 04:09:03;;;;;;;0.10;0.10;;;;;;;16.96;59.94;102002.38;5024261;28;20069;-85
2023/10/05 04:11:33;;;;;;;0.10;0.10;;;;;;;17.09;59.55;102024.31;5014085;28;20339;-85
2023/10/05 04:14:01;;;;;;;0.10;0.10;;;;;;;17.10;59.82;102041.69;5005089;28;20431;-86
2023/10/05 04:16:28;;;;;;;0.10;0.10;;;;;;;17.12;59.96;102043.31;4995723;28;20037;-90
2023/10/05 04:18:58;;;;;;;0.10;0.10;;;;;;;17.17;59.82;102043.06;5010651;28;20030;-86
2023/10/05 04:21:24;;;;;;;0.10;0.10;;;;;;;17.05;60.34;102043.72;5026574;28;20108;-91
2023/10/05 04:23:50;;;;;;;0.10;0.10;;;;;;;17.06;60.22;102045.41;4995970;28;20133;-90
2023/10/05 04:26:19;;;;;;;0.10;0.10;;;;;;;16.97;60.26;102040.69;4982941;28;20033;-90
2023/10/05 04:28:52;;;;;;;0.10;0.10;;;;;;;16.93;60.46;102047.84;5017422;28;20033;-92
2023/10/05 04:31:27;;;;;;;0.10;0.10;;;;;;;16.97;60.57;102046.75;5012784;28;20115;-91
2023/10/05 04:33:57;;;;;;;0.10;0.10;;;;;;;16.96;60.38;102055.50;4987285;28;20121;-91
2023/10/05 04:36:23;;;;;;;0.20;0.20;;;;;;;17.04;60.60;102062.97;5013740;28;20060;-92
2023/10/05 04:38:50;;;;;;;0.10;0.10;;;;;;;16.98;60.69;102058.03;4987312;28;20049;-92
2023/10/05 04:41:19;;;;;;;0.10;0.10;;;;;;;16.98;60.50;102060.66;4999064;28;20060;-92
2023/10/05 04:43:47;;;;;;;0.10;0.10;;;;;;;16.98;60.44;102063.28;5017075;28;20041;-90
2023/10/05 04:46:17;;;;;;;0.10;0.10;;;;;;;16.94;60.57;102059.16;4998925;28;20068;-89
2023/10/05 04:48:55;;;;;;;0.10;0.10;;;;;;;17.12;60.37;102076.47;4997776;28;20037;-88
2023/10/05 04:51:23;;;;;;;0.10;0.10;;;;;;;17.06;60.61;102079.41;5032707;28;20083;-91
2023/10/05 04:53:53;;;;;;;0.10;0.10;;;;;;;17.02;60.49;102081.34;5017386;28;20025;-90
2023/10/05 04:56:35;;;;;;;0.10;0.10;;;;;;;16.99;60.82;102075.41;5015221;28;20029;-89
2023/10/05 04:59:18;;;;;;;0.10;0.10;;;;;;;17.06;60.59;102088.09;5001585;28;20176;-91
2023/10/05 05:07:08;;;;;;;0.10;0.10;;;;;;;17.09;60.42;102087.06;5016190;28;20037;-91
2023/10/05 05:09:41;;;;;;;0.20;0.20;;;;;;;17.02;60.49;102077.88;5005736;28;20075;-89
2023/10/05 05:12:09;;;;;;;0.10;0.10;;;;;;;17.06;60.49;102092.47;5013222;28;20049;-83
2023/10/05 05:14:41;;;;;;;0.10;0.10;;;;;;;17.04;60.72;102094.34;5036089;28;20045;-87
2023/10/05 05:17:06;;;;;;;0.20;0.20;;;;;;;16.98;60.83;102086.78;5030067;28;20025;-89
2023/10/05 05:19:32;;;;;;;0.10;0.10;;;;;;;16.90;60.92;102082.81;5005521;28;20065;-89
2023/10/05 05:22:02;;;;;;;0.20;0.20;;;;;;;17.05;60.45;102096.88;5027365;28;20041;-90
2023/10/05 05:24:28;;;;;;;0.10;0.10;;;;;;;16.97;61.01;102100.81;4996865;28;20515;-90
2023/10/05 05:27:03;;;;;;;0.10;0.10;;;;;;;16.94;60.81;102095.75;5013412;28;20026;-86
2023/10/05 05:29:35;;;;;;;0.20;0.20;;;;;;;16.88;61.19;102108.19;5014166;28;20025;-93
2023/10/05 05:32:19;;;;;;;0.10;0.10;;;;;;;16.94;61.13;102098.34;5024300;28;20502;-86
2023/10/05 05:34:45;;;;;;;0.20;0.20;;;;;;;17.04;61.81;102107.41;5030914;28;20483;-92
2023/10/05 05:37:13;;;;;;;0.10;0.10;;;;;;;17.04;60.69;102110.03;4983398;28;20041;-90
2023/10/05 05:39:42;;;;;;;0.10;0.10;;;;;;;16.97;61.05;102116.50;4963503;28;20042;-87
2023/10/05 05:42:18;;;;;;;0.17;0.17;;;;;;;16.79;61.29;102085.13;5014601;28;20056;-89
2023/10/05 05:44:44;;;;;;;0.10;0.10;;;;;;;16.91;61.51;102115.03;5022068;28;20033;-90
2023/10/05 05:47:10;;;;;;;0.10;0.10;;;;;;;16.98;61.44;102111.16;5010873;28;20025;-90
2023/10/05 05:49:39;;;;;;;0.10;0.10;;;;;;;17.14;61.02;102127.75;4992302;28;20091;-88
2023/10/05 05:52:08;;;;;;;0.20;0.20;;;;;;;17.14;60.86;102122.53;5032659;28;20025;-89
2023/10/05 05:54:37;;;;;;;0.10;0.10;;;;;;;17.19;61.47;102117.88;5009471;28;20105;-85
2023/10/05 05:57:06;;;;;;;0.20;0.20;;;;;;;17.28;60.91;102119.16;4996349;28;20025;-92
2023/10/05 05:59:35;;;;;;;0.20;0.20;;;;;;;17.28;62.42;102113.94;4990132;28;20077;-87
2023/10/05 06:02:07;;;;;;;0.20;0.20;;;;;;;17.33;61.54;102122.41;5012645;28;20030;-91
2023/10/05 06:04:33;;;;;;;0.10;0.10;;;;;;;17.36;61.38;102122.22;5018198;28;20028;-89
2023/10/05 06:06:59;;;;;;;0.20;0.20;;;;;;;17.49;61.15;102131.09;5019899;28;20029;-90
2023/10/05 06:09:27;;;;;;;0.10;0.10;;;;;;;17.47;61.24;102112.03;5017996;28;20123;-90
2023/10/05 06:11:53;;;;;;;0.20;0.20;;;;;;;17.67;60.94;102128.41;5030445;28;20076;-92
2023/10/05 06:14:19;;;;;;;0.10;0.10;;;;;;;17.73;61.30;102130.72;5031789;28;20434;-94
2023/10/05 06:16:44;;;;;;;0.20;0.20;;;;;;;17.79;60.59;102130.38;5000680;28;20112;-90
2023/10/05 06:19:10;;;;;;;0.20;0.20;;;;;;;17.83;60.50;102131.91;4998298;28;20026;-90
2023/10/05 06:21:36;;;;;;;0.10;0.10;;;;;;;17.88;59.85;102139.50;5032240;28;20037;-93
2023/10/05 06:24:05;;;;;;;0.10;0.10;;;;;;;17.91;60.55;102145.41;5020871;28;20163;-89
2023/10/05 06:26:31;;;;;;;0.20;0.20;;;;;;;18.02;59.40;102143.03;5000938;28;20033;-89
2023/10/05 06:28:57;;;;;;;0.10;0.10;;;;;;;18.06;59.50;102143.69;5032711;28;20120;-91
2023/10/05 06:31:23;;;;;;;0.20;0.20;;;;;;;18.17;59.07;102145.72;5018110;28;20411;-92
2023/10/05 06:33:48;;;;;;;0.10;0.10;;;;;;;18.17;58.79;102143.94;4998435;28;20156;-90
2023/10/05 06:36:14;;;;;;;0.10;0.10;;;;;;;18.38;59.63;102154.97;5039520;28;20033;-93
2023/10/05 06:38:39;;;;;;;0.20;0.20;;;;;;;18.28;57.37;102143.31;4979552;28;20036;-88
2023/10/05 06:41:05;;;;;;;0.20;0.20;;;;;;;18.29;57.71;102155.53;5017208;28;20036;-91
2023/10/05 06:43:36;;;;;;;0.13;0.13;;;;;;;18.29;57.06;102155.53;5022152;28;20667;-87
2023/10/05 06:46:17;;;;;;;0.20;0.20;;;;;;;18.32;57.05;102144.84;5027239;28;20034;-88
2023/10/05 06:48:43;;;;;;;0.10;0.10;;;;;;;18.39;55.87;102161.91;4985345;28;20037;-88
2023/10/05 06:51:09;;;;;;;0.10;0.10;;;;;;;18.43;55.82;102155.56;5021060;28;20026;-87
2023/10/05 06:53:37;;;;;;;0.10;0.10;;;;;;;18.50;55.52;102164.75;5012760;28;20446;-89
2023/10/05 06:56:03;;;;;;;0.10;0.10;;;;;;;18.58;55.26;102167.78;5017910;28;20029;-88
2023/10/05 06:58:28;;;;;;;0.10;0.10;;;;;;;18.71;55.40;102169.72;5040418;28;20029;-90
2023/10/05 07:00:54;;;;;;;0.20;0.20;;;;;;;18.74;54.97;102173.00;5029922;28;20029;-84
2023/10/05 07:03:20;;;;;;;0.20;0.20;;;;;;;18.76;54.46;102157.16;4985834;28;20091;-86
2023/10/05 07:05:47;;;;;;;0.10;0.10;;;;;;;18.94;56.80;102174.44;5003433;28;20496;-92
2023/10/05 07:08:14;;;;;;;0.10;0.10;;;;;;;19.01;54.85;102174.91;4994512;28;20030;-92
2023/10/05 07:10:40;;;;;;;0.20;0.20;;;;;;;19.05;53.74;102179.03;5007953;28;20056;-91
2023/10/05 07:13:08;;;;;;;0.20;0.20;;;;;;;19.09;53.65;102170.91;5022235;28;20648;-87
2023/10/05 07:15:34;;;;;;;0.20;0.20;;;;;;;19.24;54.22;102184.03;5022585;28;20041;-86
2023/10/05 07:18:00;;;;;;;0.10;0.10;;;;;;;19.56;52.83;102185.53;5034735;28;20033;-88
2023/10/05 07:20:27;;;;;;;0.20;0.20;;;;;;;19.62;52.70;102190.41;5043868;28;20077;-85
2023/10/05 07:22:52;;;;;;;0.20;0.20;;;;;;;19.62;52.35;102190.41;5025718;28;20064;-85
2023/10/05 07:25:18;;;;;;;0.10;0.10;;;;;;;19.72;52.00;102199.41;4995426;28;20471;-86
2023/10/05 07:27:43;;;;;;;0.20;0.20;;;;;;;19.96;53.58;102201.41;5029331;28;20044;-86
2023/10/05 07:30:09;;;;;;;0.20;0.20;;;;;;;19.92;51.01;102192.06;4999497;28;20037;-87
2023/10/05 07:32:35;;;;;;;0.20;0.20;;;;;;;19.83;50.90;102198.72;5033925;28;20034;-87
2023/10/05 07:35:01;;;;;;;0.20;0.20;;;;;;;19.89;50.53;102189.63;5020962;28;20037;-92
2023/10/05 07:37:27;;;;;;;0.20;0.20;;;;;;;20.07;50.34;102193.72;4992202;28;20033;-92
2023/10/05 07:39:52;;;;;;;0.10;0.10;;;;;;;20.09;49.49;102183.94;5001919;28;20036;-85
2023/10/05 07:42:18;;;;;;;0.10;0.10;;;;;;;20.19;50.47;102192.91;5037843;28;20411;-91
2023/10/05 07:44:43;;;;;;;0.20;0.20;;;;;;;20.28;49.94;102196.75;5023409;28;20491;-86
2023/10/05 07:47:12;;;;;;;0.10;0.10;;;;;;;20.26;51.86;102188.13;4996804;28;20131;-88
2023/10/05 07:49:38;;;;;;;0.10;0.10;;;;;;;20.30;49.06;102190.44;5005457;28;20052;-87
2023/10/05 07:52:25;;;;;;;0.20;0.20;;;;;;;20.29;49.35;102186.13;5018052;28;20152;-92
2023/10/05 07:54:54;;;;;;;0.10;0.10;;;;;;;20.34;50.87;102176.13;5035303;28;20048;-90
2023/10/05 07:57:20;;;;;;;0.10;0.10;;;;;;;20.58;50.12;102188.66;4966372;28;20060;-86
2023/10/05 07:59:46;;;;;;;0.20;0.20;;;;;;;20.63;49.45;102189.19;5038331;28;20025;-92
2023/10/05 08:02:11;;;;;;;0.20;0.20;;;;;;;20.72;48.67;102195.63;5000289;28;20065;-94
2023/10/05 08:04:44;;;;;;;0.20;0.20;;;;;;;20.92;49.17;102195.94;5006975;28;20087;-87
2023/10/05 08:07:11;;;;;;;0.20;0.20;;;;;;;20.89;48.96;102164.59;5002586;28;20041;-92
2023/10/05 08:09:36;;;;;;;0.20;0.20;;;;;;;21.24;49.25;102200.81;5006617;28;20438;-91
2023/10/05 08:12:05;;;;;;;0.10;0.10;;;;;;;21.19;47.72;102179.22;5030244;28;20038;-90
2023/10/05 08:14:31;;;;;;;0.10;0.10;;;;;;;21.27;48.41;102198.00;5015691;28;20139;-86
2023/10/05 08:16:59;;;;;;;0.20;0.20;;;;;;;21.39;47.99;102205.03;5032062;28;20506;-90
2023/10/05 08:19:25;;;;;;;0.10;0.10;;;;;;;21.38;47.47;102192.00;5011475;28;20041;-91
2023/10/05 08:21:52;;;;;;;0.15;0.15;;;;;;;21.34;49.09;102199.28;5039052;28;20034;-89
2023/10/05 08:24:18;;;;;;;0.20;0.20;;;;;;;21.45;47.53;102198.53;5027428;28;20034;-88
2023/10/05 08:26:44;;;;;;;0.20;0.20;;;;;;;21.56;47.31;102182.81;5022070;28;20017;-92
2023/10/05 08:29:09;;;;;;;0.20;0.20;;;;;;;21.74;47.10;102191.19;5031072;28;20450;-85
2023/10/05 08:31:38;;;;;;;0.10;0.10;;;;;;;21.81;46.69;102181.03;5014262;28;20022;-87
2023/10/05 08:34:03;;;;;;;0.15;0.15;;;;;;;21.92;45.91;102181.94;5025131;28;20030;-84
2023/10/05 08:36:30;;;;;;;0.10;0.10;;;;;;;21.93;46.08;102190.72;5008976;28;20065;-87
2023/10/05 08:38:56;;;;;;;0.17;0.17;;;;;;;21.90;46.74;102172.47;5027945;28;20503;-90
2023/10/05 08:41:32;;;;;;;0.20;0.20;;;;;;;22.17;46.89;102183.69;5042375;28;20076;-90
2023/10/05 08:43:59;;;;;;;0.20;0.20;;;;;;;22.14;45.32;102178.66;5010833;28;20376;-90
2023/10/05 08:46:25;;;;;;;0.10;0.10;;;;;;;22.13;45.72;102191.94;4993220;28;20029;-88
2023/10/05 08:48:50;;;;;;;0.20;0.20;;;;;;;22.33;45.69;102186.88;5029804;28;20453;-90
2023/10/05 08:51:16;;;;;;;0.10;0.10;;;;;;;22.24;45.33;102178.81;5011516;28;20472;-87
2023/10/05 08:53:44;;;;;;;0.10;0.10;;;;;;;22.18;46.22;102177.44;4987037;28;20082;-94
2023/10/05 08:56:15;;;;;;;0.10;0.10;;;;;;;22.33;46.32;102200.06;5022729;28;20037;-87
2023/10/05 08:58:48;;;;;;;0.20;0.20;;;;;;;22.40;46.46;102195.16;4985460;28;20050;-88
2023/10/05 09:01:29;;;;;;;0.20;0.20;;;;;;;22.51;45.99;102187.28;4997983;28;20036;-86
2023/10/05 09:06:47;;;;;;;0.10;0.10;;;;;;;22.49;46.11;102152.28;4998458;28;20085;-82
2023/10/05 09:09:37;;;;;;;0.20;0.20;;;;;;;22.64;46.07;102181.13;5013096;28;20026;-82
2023/10/05 09:12:32;;;;;;;0.10;0.10;;;;;;;22.80;45.26;102176.34;5038485;28;20040;-91
2023/10/05 09:18:17;;;;;;;0.20;0.20;;;;;;;22.65;45.30;102177.53;5007254;28;20490;-90
2023/10/05 09:20:42;;;;;;;0.20;0.20;;;;;;;22.64;45.86;102165.28;5013054;28;20076;-88
2023/10/05 09:23:13;;;;;;;0.10;0.10;;;;;;;22.58;46.15;102154.22;5010033;28;20037;-88
2023/10/05 09:25:44;;;;;;;0.20;0.20;;;;;;;22.50;45.94;102147.84;4990648;28;20156;-86
2023/10/05 09:28:14;;;;;;;0.20;0.20;;;;;;;22.75;46.67;102160.88;4991101;28;21209;-89
2023/10/05 09:30:55;;;;;;;0.10;0.10;;;;;;;22.83;45.62;102165.56;5020359;28;20286;-87
2023/10/05 09:33:26;;;;;;;0.20;0.20;;;;;;;22.74;45.09;102135.44;4998665;28;20499;-89
2023/10/05 09:35:55;;;;;;;0.20;0.20;;;;;;;22.87;44.77;102148.56;5015567;28;20153;-88
2023/10/05 09:38:21;;;;;;;0.10;0.10;;;;;;;22.92;45.36;102164.91;5012101;28;20083;-93
2023/10/05 09:40:47;;;;;;;0.10;0.10;;;;;;;22.81;45.06;102141.06;5039511;28;20478;-91
2023/10/05 09:43:14;;;;;;;0.10;0.10;;;;;;;23.08;45.78;102160.09;5028593;28;20040;-87
2023/10/05 09:45:43;;;;;;;0.10;0.10;;;;;;;23.21;47.18;102154.72;5004003;28;20524;-88
2023/10/05 09:48:08;;;;;;;0.10;0.10;;;;;;;23.39;44.51;102155.88;5043441;28;20074;-86
2023/10/05 09:50:34;;;;;;;0.10;0.10;;;;;;;23.39;45.12;102155.06;5034187;28;20037;-93
2023/10/05 09:53:02;;;;;;;0.20;0.20;;;;;;;23.22;45.03;102131.81;5011676;28;20421;-87
2023/10/05 09:55:30;;;;;;;0.20;0.20;;;;;;;23.35;46.09;102157.09;5000021;28;20029;-89
2023/10/05 09:58:05;;;;;;;0.20;0.20;;;;;;;23.50;43.94;102148.91;4980965;28;20867;-88
2023/10/05 10:00:47;;;;;;;0.10;0.10;;;;;;;23.31;44.51;102134.56;5033347;28;20105;-89
2023/10/05 10:03:14;;;;;;;0.20;0.20;;;;;;;23.36;44.42;102124.47;5012348;28;20029;-86
2023/10/05 10:05:59;;;;;;;0.10;0.10;;;;;;;23.27;44.88;102132.25;5028267;28;20044;-90
2023/10/05 10:08:26;;;;;;;0.10;0.10;;;;;;;23.39;44.44;102139.22;5012257;28;20108;-87
2023/10/05 10:11:06;;;;;;;0.20;0.20;;;;;;;23.48;46.16;102133.19;5013382;28;20033;-86
2023/10/05 10:13:37;;;;;;;0.20;0.20;;;;;;;23.59;44.95;102127.94;4997047;28;20028;-84
2023/10/05 10:16:21;;;;;;;0.20;0.20;;;;;;;23.63;43.86;102129.38;4995924;28;20503;-88
2023/10/05 10:19:04;;;;;;;0.20;0.20;;;;;;;23.62;44.77;102109.22;4999676;28;20026;-85
2023/10/05 10:21:42;;;;;;;;;;;;;;;23.77;44.20;102130.06;5006692;28;20033;-90
2023/10/05 10:24:20;;;;;;;0.10;0.10;;;;;;;23.71;44.20;102113.75;5016500;28;20012;-90
2023/10/05 10:26:53;;;;;;;0.10;0.10;;;;;;;23.64;44.15;102114.38;5043179;28;20068;-87
2023/10/05 10:29:22;;;;;;;0.20;0.20;;;;;;;23.87;43.87;102115.13;5011636;28;20191;-90
2023/10/05 10:32:18;;;;;;;0.20;0.20;;;;;;;23.80;44.60;102111.31;4994576;28;20053;-87
2023/10/05 10:34:49;;;;;;;0.10;0.10;;;;;;;23.92;43.78;102115.59;4958612;28;20514;-93
2023/10/05 10:37:44;;;;;;;0.20;0.20;;;;;;;23.94;43.47;102105.72;4998112;28;20561;-88
2023/10/05 10:43:00;;;;;;;0.10;0.10;;;;;;;23.90;45.33;102091.94;5022710;28;20063;-86
2023/10/05 10:45:29;;;;;;;0.10;0.10;;;;;;;24.06;43.93;102082.72;5010703;28;20030;-86
2023/10/05 10:47:56;;;;;;;0.20;0.20;;;;;;;24.20;44.59;102091.22;5022335;28;20038;-90
2023/10/05 10:50:30;;;;;;;0.10;0.10;;;;;;;24.16;43.22;102078.34;4993085;28;20116;-90
2023/10/05 10:52:58;;;;;;;0.20;0.20;;;;;;;23.82;43.95;102075.03;4999449;28;20030;-85
2023/10/05 10:55:33;;;;;;;0.20;0.20;;;;;;;24.01;43.34;102075.19;5008865;28;20744;-87
2023/10/05 10:58:00;;;;;;;0.20;0.20;;;;;;;24.06;44.05;102062.41;5023117;28;20518;-88
2023/10/05 11:03:15;;;;;;;0.10;0.10;;;;;;;24.40;43.60;102067.56;5004591;28;20044;-89
2023/10/05 11:05:47;;;;;;;0.13;0.13;;;;;;;24.58;42.89;102065.97;4999733;28;20026;-90
2023/10/05 11:08:15;;;;;;;0.20;0.20;;;;;;;24.74;42.61;102053.13;5002757;28;20045;-92
2023/10/05 11:10:41;;;;;;;0.10;0.10;;;;;;;24.82;42.88;102045.34;4991566;28;20660;-89
2023/10/05 11:13:19;;;;;;;0.20;0.20;;;;;;;24.91;41.80;102040.22;4981571;28;20499;-92
2023/10/05 11:15:58;;;;;;;0.20;0.20;;;;;;;24.93;41.93;102036.47;4994924;28;20050;-87
2023/10/05 11:18:39;;;;;;;0.20;0.20;;;;;;;25.03;43.90;102032.06;5000018;28;20037;-85
2023/10/05 11:21:16;;;;;;;0.20;0.20;;;;;;;25.14;41.48;102024.00;5004298;28;20061;-92
2023/10/05 11:23:55;;;;;;;0.10;0.10;;;;;;;25.17;42.28;102029.06;5011521;28;20142;-87
2023/10/05 11:26:33;;;;;;;0.20;0.20;;;;;;;25.13;42.98;102017.03;5008249;28;20491;-88
2023/10/05 11:28:59;;;;;;;0.13;0.13;;;;;;;25.00;41.93;102018.25;4990483;28;20411;-84
2023/10/05 11:31:26;;;;;;;0.10;0.10;;;;;;;25.16;41.68;102018.56;5040955;28;20029;-87
2023/10/05 11:34:09;;;;;;;0.20;0.20;;;;;;;25.31;41.65;102019.88;5017894;28;20046;-87
2023/10/05 11:36:39;;;;;;;0.10;0.10;;;;;;;25.35;41.37;102004.53;5030914;28;20022;-86
2023/10/05 11:39:06;;;;;;;0.10;0.10;;;;;;;25.37;41.70;102011.38;5025673;28;20042;-94
2023/10/05 11:41:33;;;;;;;0.10;0.10;;;;;;;25.42;41.66;102006.50;5022361;28;20021;-88
2023/10/05 11:43:59;;;;;;;0.10;0.10;;;;;;;25.45;41.36;102008.84;5016045;28;20029;-89
2023/10/05 11:46:53;;;;;;;0.20;0.20;;;;;;;25.41;41.90;102007.47;5026121;28;20032;-86
2023/10/05 11:49:20;;;;;;;0.10;0.10;;;;;;;25.27;41.71;102009.66;5007325;28;20056;-90
2023/10/05 11:51:56;;;;;;;0.20;0.20;;;;;;;25.29;41.92;101997.16;5008568;28;20030;-88
2023/10/05 11:54:24;;;;;;;0.20;0.20;;;;;;;25.40;41.76;102004.97;5035331;28;20124;-90
2023/10/05 11:57:00;;;;;;;0.20;0.20;;;;;;;25.56;41.49;101999.09;5008522;28;20084;-92
2023/10/05 11:59:30;;;;;;;0.20;0.20;;;;;;;25.56;41.39;102004.41;5012071;28;20026;-92
2023/10/05 12:01:55;;;;;;;0.20;0.20;;;;;;;25.66;41.25;101997.28;5000562;28;20102;-91
2023/10/05 12:04:23;;;;;;;0.20;0.20;;;;;;;25.66;41.22;101999.94;4990436;28;20046;-93
2023/10/05 12:06:58;;;;;;;0.10;0.10;;;;;;;25.60;41.07;101987.25;5015785;28;20032;-91
2023/10/05 12:09:28;;;;;;;0.20;0.20;;;;;;;25.60;41.19;101988.09;5023031;28;20142;-90